Terminal Aerodrome Forecast
Issued by NWS Portland, OR

Current Version | Previous Version | Text Only | Print | Product List | Glossary On
Versions: 1 2 3 4 5 6 7 8 9 10 11 12 13 14 15 16 17 18 19 20 21 22 23 24 25 26 27 28 29 30 31 32
000
FTUS46 KPQR 271427 AAA
TAFAST
TAF AMD
KAST 271427Z 2714/2812 25007KT 6SM -RA BR SCT005 BKN015 OVC025
     FM271900 25010KT 4SM RA BR SCT007 OVC010
     FM272000 27014G24KT 5SM RA BR BKN018 OVC030
     FM280800 27011KT P6SM SCT030 OVC050=

USA.gov is the U.S. government's official web portal to all federal, state and local government web resources and services.